createdAt,value
2023-04-14T00:01:51.693Z,58.1
2023-04-14T00:07:29.945Z,58.1
2023-04-14T00:13:22.359Z,58.1
2023-04-14T00:19:16.003Z,58
2023-04-14T00:25:06.886Z,58
2023-04-14T00:30:58.810Z,57.9
2023-04-14T00:36:35.309Z,57.9
2023-04-14T00:42:27.162Z,57.9
2023-04-14T00:48:18.611Z,57.8
2023-04-14T01:05:25.788Z,57.7
2023-04-14T01:11:17.270Z,57.6
2023-04-14T01:17:09.127Z,57.6
2023-04-14T01:23:00.331Z,57.6
2023-04-14T01:28:36.997Z,57.5
2023-04-14T01:34:29.513Z,57.4
2023-04-14T01:40:20.921Z,57.4
2023-04-14T01:45:57.108Z,57.4
2023-04-14T01:51:50.113Z,57.3
2023-04-14T01:57:42.079Z,57.3
2023-04-14T02:03:34.799Z,57.3
2023-04-14T02:09:26.389Z,57.2
2023-04-14T02:15:17.586Z,57.1
2023-04-14T02:21:09.278Z,57.1
2023-04-14T02:27:00.652Z,57.1
2023-04-14T02:32:51.838Z,57
2023-04-14T02:38:42.689Z,57
2023-04-14T02:44:34.062Z,56.9
2023-04-14T02:50:25.808Z,56.9
2023-04-14T02:56:17.061Z,56.8
2023-04-14T03:02:09.369Z,56.8
2023-04-14T03:08:01.250Z,56.7
2023-04-14T03:13:37.491Z,56.7
2023-04-14T03:19:13.185Z,56.6
2023-04-14T03:25:04.468Z,56.6
2023-04-14T03:30:57.076Z,56.6
2023-04-14T03:36:48.443Z,56.5
2023-04-14T03:42:41.109Z,56.5
2023-04-14T03:48:37.653Z,56.4
2023-04-14T03:54:30.820Z,56.4
2023-04-14T04:00:22.781Z,56.4
2023-04-14T04:06:17.280Z,56.3
2023-04-14T04:12:09.155Z,56.3
2023-04-14T04:18:02.376Z,56.2
2023-04-14T04:23:53.885Z,56.2
2023-04-14T04:29:59.977Z,56.1
2023-04-14T04:35:52.671Z,56.1
2023-04-14T04:41:44.673Z,56
2023-04-14T04:47:20.636Z,56
2023-04-14T04:52:56.400Z,55.9
2023-04-14T04:58:33.899Z,55.9
2023-04-14T05:03:56.276Z,55.9
2023-04-14T05:09:34.802Z,55.8
2023-04-14T05:15:11.032Z,55.8
2023-04-14T05:20:47.143Z,55.8
2023-04-14T05:26:54.718Z,55.7
2023-04-14T05:32:24.804Z,55.6
2023-04-14T05:38:02.393Z,55.6
2023-04-14T05:43:38.749Z,55.6
2023-04-14T05:49:30.782Z,55.6
2023-04-14T05:55:08.098Z,55.5
2023-04-14T06:00:46.818Z,55.5
2023-04-14T06:06:42.846Z,55.4
2023-04-14T06:12:19.231Z,55.4
2023-04-14T06:17:54.610Z,55.3
2023-04-14T06:23:31.596Z,55.3
2023-04-14T06:29:07.569Z,55.3
2023-04-14T06:35:00.060Z,55.2
2023-04-14T06:41:04.270Z,55.1
2023-04-14T06:46:57.185Z,55.1
2023-04-14T06:52:49.191Z,55.1
2023-04-14T06:58:41.318Z,55
2023-04-14T07:04:36.192Z,54.9
2023-04-14T07:10:27.805Z,54.9
2023-04-14T07:16:19.495Z,54.9
2023-04-14T07:21:57.873Z,54.9
2023-04-14T07:28:00.220Z,54.8
2023-04-14T07:33:54.891Z,54.8
2023-04-14T07:39:58.344Z,54.8
2023-04-14T07:45:34.146Z,54.7
2023-04-14T07:51:26.924Z,54.6
2023-04-14T07:57:21.490Z,54.6
2023-04-14T08:03:03.583Z,54.6
2023-04-14T08:08:56.654Z,54.5
2023-04-14T08:14:32.249Z,54.4
2023-04-14T08:19:53.750Z,54.4
2023-04-14T08:25:30.073Z,54.4
2023-04-14T08:31:06.751Z,54.4
2023-04-14T08:37:58.715Z,54.3
2023-04-14T08:43:50.643Z,54.3
2023-04-14T08:49:44.021Z,54.2
2023-04-14T08:55:20.581Z,54.2
2023-04-14T09:01:13.500Z,54.1
2023-04-14T09:07:08.403Z,54.1
2023-04-14T09:12:59.810Z,54.1
2023-04-14T09:18:53.106Z,54
2023-04-14T09:26:38.348Z,54
2023-04-14T09:32:14.169Z,54.4
2023-04-14T09:37:50.340Z,55
2023-04-14T09:43:41.894Z,55.6
2023-04-14T09:49:18.195Z,56.3
2023-04-14T09:55:11.582Z,57.1
2023-04-14T10:01:03.964Z,58.1
2023-04-14T10:06:42.683Z,58.9
2023-04-14T10:12:33.890Z,59.8
2023-04-14T10:18:25.956Z,60.6
2023-04-14T10:24:19.344Z,61.3
2023-04-14T10:30:12.665Z,61.9
2023-04-14T10:36:05.374Z,62.1
2023-04-14T10:41:40.930Z,62.1
2023-04-14T10:47:32.305Z,62.1
2023-04-14T10:53:25.704Z,62.1
2023-04-14T10:59:16.511Z,62.1
2023-04-14T11:05:10.777Z,62
2023-04-14T11:11:01.918Z,62
2023-04-14T11:16:44.793Z,61.9
2023-04-14T11:22:43.226Z,61.9
2023-04-14T11:28:34.342Z,61.9
2023-04-14T11:34:27.761Z,61.8
2023-04-14T11:40:04.264Z,61.8
2023-04-14T11:45:56.464Z,61.8
2023-04-14T11:51:31.915Z,61.7
2023-04-14T11:57:24.186Z,61.6
2023-04-14T12:03:01.054Z,61.6
2023-04-14T12:08:40.574Z,61.6
2023-04-14T12:14:33.769Z,61.5
2023-04-14T12:19:39.461Z,61.5
2023-04-14T12:25:16.085Z,61.4
2023-04-14T12:31:08.163Z,61.4
2023-04-14T12:37:01.847Z,61.4
2023-04-14T12:42:37.386Z,61.3
2023-04-14T12:48:29.850Z,61.3
2023-04-14T12:54:22.215Z,61.3
2023-04-14T13:00:13.948Z,61.2
2023-04-14T13:06:10.219Z,61.1
2023-04-14T13:12:03.889Z,61.1
2023-04-14T13:18:51.532Z,61.1
2023-04-14T13:24:44.495Z,61
2023-04-14T13:30:36.584Z,60.9
2023-04-14T13:36:14.044Z,60.9
2023-04-14T13:42:08.227Z,60.9
2023-04-14T13:48:04.040Z,60.8
2023-04-14T13:53:55.601Z,60.8
2023-04-14T13:59:50.047Z,60.8
2023-04-14T14:05:45.571Z,60.7
2023-04-14T14:11:39.894Z,60.6
2023-04-14T14:17:26.849Z,60.6
2023-04-14T14:23:18.992Z,60.6
2023-04-14T14:29:07.704Z,60.5
2023-04-14T14:35:03.518Z,60.4
2023-04-14T14:40:56.181Z,60.4
2023-04-14T14:46:53.438Z,60.4
2023-04-14T14:52:56.090Z,60.3
2023-04-14T14:58:57.069Z,60.3
2023-04-14T15:04:35.870Z,60.1
2023-04-14T15:10:27.240Z,60.1
2023-04-14T15:16:19.486Z,59.9
2023-04-14T15:22:11.057Z,59.9
2023-04-14T15:28:02.489Z,59.8
2023-04-14T15:33:54.702Z,59.7
2023-04-14T15:39:46.866Z,59.6
2023-04-14T15:45:39.134Z,58.9
2023-04-14T15:51:51.520Z,57.9
2023-04-14T15:57:43.802Z,57.6
2023-04-14T16:03:36.879Z,56.4
2023-04-14T16:09:29.276Z,55.9
2023-04-14T16:15:22.563Z,55.7
2023-04-14T16:21:16.107Z,55.6
2023-04-14T16:27:08.080Z,55.6
2023-04-14T16:32:59.824Z,55.5
2023-04-14T16:38:51.720Z,55.4
2023-04-14T16:44:43.551Z,55.4
2023-04-14T16:50:36.099Z,55.3
2023-04-14T16:56:27.971Z,55.3
2023-04-14T17:02:20.985Z,55.2
2023-04-14T17:08:17.405Z,55.1
2023-04-14T17:14:09.428Z,55
2023-04-14T17:20:10.469Z,54.9
2023-04-14T17:26:02.153Z,54.9
2023-04-14T17:31:54.189Z,54.8
2023-04-14T17:37:45.743Z,54.8
2023-04-14T17:43:37.557Z,54.7
2023-04-14T17:49:30.881Z,54.6
2023-04-14T17:55:07.359Z,54.6
2023-04-14T18:00:59.112Z,54.6
2023-04-14T18:06:52.522Z,54.5
2023-04-14T18:12:44.060Z,54.4
2023-04-14T18:18:35.744Z,54.4
2023-04-14T18:30:44.650Z,54.3
2023-04-14T18:36:36.882Z,54.2
2023-04-14T18:42:28.315Z,54.2
2023-04-14T18:48:20.351Z,54.1
2023-04-14T18:53:58.063Z,54.1
2023-04-14T18:59:58.514Z,54
2023-04-14T19:05:36.116Z,53.9
2023-04-14T19:11:28.642Z,53.9
2023-04-14T19:17:15.302Z,53.8
2023-04-14T19:22:51.954Z,53.8
2023-04-14T19:28:29.130Z,53.8
2023-04-14T19:34:06.065Z,53.7
2023-04-14T19:39:42.554Z,53.6
2023-04-14T19:45:34.060Z,53.5
2023-04-14T19:51:22.429Z,53.4
2023-04-14T19:57:14.297Z,53.3
2023-04-14T20:03:09.177Z,53.3
2023-04-14T20:09:31.099Z,53.2
2023-04-14T20:15:22.763Z,53.1
2023-04-14T20:21:14.882Z,53.1
2023-04-14T20:27:06.122Z,53.1
2023-04-14T20:32:58.894Z,53
2023-04-14T20:38:49.888Z,52.9
2023-04-14T20:44:40.924Z,52.9
2023-04-14T20:50:33.183Z,52.8
2023-04-14T20:56:08.785Z,52.8
2023-04-14T21:01:59.884Z,52.7
2023-04-14T21:07:54.728Z,52.6
2023-04-14T21:17:49.651Z,52.6
2023-04-14T21:23:41.816Z,52.5
2023-04-14T21:29:32.604Z,52.4
2023-04-14T21:41:00.979Z,52.3
2023-04-14T21:46:36.422Z,52.3
2023-04-14T21:52:29.319Z,52.2
2023-04-14T21:59:11.411Z,52.1
2023-04-14T22:05:14.512Z,52.1
2023-04-14T22:11:06.542Z,52
2023-04-14T22:16:43.617Z,52
2023-04-14T22:28:10.668Z,51.9
2023-04-14T22:33:48.138Z,51.8
2023-04-14T22:39:24.084Z,51.8
2023-04-14T22:45:15.641Z,51.7
2023-04-14T22:51:08.388Z,51.7
2023-04-14T22:57:06.040Z,51.6
2023-04-14T23:03:09.157Z,51.5
2023-04-14T23:09:02.104Z,51.5
2023-04-14T23:14:53.510Z,51.4
2023-04-14T23:20:43.881Z,51.4
2023-04-14T23:26:36.101Z,51.3
2023-04-14T23:32:12.271Z,51.3
2023-04-14T23:38:04.016Z,51.2
2023-04-14T23:43:55.636Z,51.1
2023-04-14T23:50:07.415Z,51.1
2023-04-14T23:56:21.847Z,51
